createdAt,value
2023-10-02T00:01:24.179Z,17.6
2023-10-02T00:11:30.126Z,18.3
2023-10-02T00:21:36.869Z,18.4
2023-10-02T00:31:43.656Z,19.4
2023-10-02T00:41:50.449Z,19.2
2023-10-02T00:51:57.244Z,20.4
2023-10-02T01:02:04.034Z,19.4
2023-10-02T01:12:10.881Z,19.3
2023-10-02T01:22:17.631Z,20.4
2023-10-02T01:32:24.457Z,20.4
2023-10-02T01:42:31.339Z,20.2
2023-10-02T01:52:38.155Z,20.8
2023-10-02T02:02:45.008Z,21
2023-10-02T02:12:51.921Z,20.8
2023-10-02T02:22:58.835Z,21.9
2023-10-02T02:33:05.792Z,21.3
2023-10-02T02:43:12.724Z,21.4
2023-10-02T02:53:19.617Z,21.7
2023-10-02T03:03:26.478Z,20.3
2023-10-02T03:13:33.348Z,19.7
2023-10-02T03:23:40.230Z,19.7
2023-10-02T03:33:46.249Z,19.7
2023-10-02T03:43:53.149Z,19.9
2023-10-02T03:54:00.057Z,19.8
2023-10-02T04:04:06.871Z,18.5
2023-10-02T04:14:13.788Z,19.1
2023-10-02T04:24:20.720Z,20.2
2023-10-02T04:34:27.625Z,18.7
2023-10-02T04:44:34.540Z,19
2023-10-02T04:54:41.402Z,18.4
2023-10-02T05:04:48.311Z,18.9
2023-10-02T05:14:55.273Z,17.6
2023-10-02T05:25:02.230Z,18.9
2023-10-02T05:35:09.221Z,19
2023-10-02T05:45:16.178Z,18
2023-10-02T05:55:23.143Z,18.1
2023-10-02T06:05:30.172Z,19.9
2023-10-02T06:15:37.065Z,18.9
2023-10-02T06:25:43.879Z,19.4
2023-10-02T06:35:50.811Z,19
2023-10-02T06:45:57.887Z,20.8
2023-10-02T06:56:04.702Z,20.4
2023-10-02T07:06:11.631Z,20.7
2023-10-02T07:16:18.569Z,20.6
2023-10-02T07:26:24.638Z,19.5
2023-10-02T07:36:31.422Z,19.1
2023-10-02T07:46:38.266Z,19.7
2023-10-02T07:56:45.099Z,18.4
2023-10-02T08:06:51.862Z,19.7
2023-10-02T08:16:58.559Z,19.4
2023-10-02T08:27:05.177Z,18.4
2023-10-02T08:37:11.840Z,19.5
2023-10-02T08:47:18.489Z,20.2
2023-10-02T08:57:25.132Z,20.1
2023-10-02T09:07:31.769Z,18.3
2023-10-02T09:17:38.412Z,18.2
2023-10-02T09:27:44.934Z,19.4
2023-10-02T09:37:51.484Z,19.6
2023-10-02T09:47:58.059Z,20.4
2023-10-02T09:58:04.586Z,20.5
2023-10-02T10:08:11.044Z,19.7
2023-10-02T10:18:17.580Z,20.1
2023-10-02T10:28:23.888Z,20.1
2023-10-02T10:38:30.363Z,20.1
2023-10-02T10:48:36.617Z,20.8
2023-10-02T10:58:43.031Z,20.7
2023-10-02T11:08:49.287Z,19.5
2023-10-02T11:18:55.572Z,19.7
2023-10-02T11:29:01.883Z,22
2023-10-02T11:39:08.145Z,20.9
2023-10-02T11:49:14.208Z,20.5
2023-10-02T11:59:20.398Z,19.9
2023-10-02T12:09:26.587Z,20.5
2023-10-02T12:19:32.756Z,20.2
2023-10-02T12:29:39.173Z,21.2
2023-10-02T12:39:44.518Z,21.4
2023-10-02T12:49:50.874Z,20.8
2023-10-02T12:59:56.860Z,21.7
2023-10-02T13:10:03.062Z,21
2023-10-02T13:20:09.271Z,21.6
2023-10-02T13:30:15.473Z,21
2023-10-02T13:40:21.613Z,20.7
2023-10-02T13:50:27.856Z,21.8
2023-10-02T14:00:34.038Z,22.7
2023-10-02T14:10:40.351Z,22.4
2023-10-02T14:20:46.486Z,21.5
2023-10-02T14:30:52.695Z,21.7
2023-10-02T14:40:58.923Z,22.5
2023-10-02T14:51:04.275Z,22.8
2023-10-02T15:01:10.472Z,21.7
2023-10-02T15:11:16.915Z,22.8
2023-10-02T15:21:22.912Z,22
2023-10-02T15:31:29.085Z,22.9
2023-10-02T15:41:35.301Z,21
2023-10-02T15:51:41.455Z,22.7
2023-10-02T16:01:47.627Z,22.1
2023-10-02T16:11:53.802Z,22.5
2023-10-02T16:21:59.994Z,22.8
2023-10-02T16:32:06.225Z,23.4
2023-10-02T16:42:12.504Z,23.6
2023-10-02T16:52:18.696Z,23.6
2023-10-02T17:02:24.940Z,23.5
2023-10-02T17:12:31.182Z,23.3
2023-10-02T17:22:37.474Z,24.7
2023-10-02T17:32:43.729Z,24.2
2023-10-02T17:42:50.005Z,24.6
2023-10-02T17:52:56.284Z,26.4
2023-10-02T18:03:02.624Z,26.1
2023-10-02T18:13:08.884Z,26.4
2023-10-02T18:23:15.254Z,25.6
2023-10-02T18:33:21.676Z,25.9
2023-10-02T18:43:28.109Z,27.7
2023-10-02T18:53:34.556Z,26.7
2023-10-02T19:03:41.008Z,26.7
2023-10-02T19:13:47.460Z,26.2
2023-10-02T19:23:53.910Z,24.8
2023-10-02T19:34:00.428Z,26.4
2023-10-02T19:44:06.998Z,27.3
2023-10-02T19:54:13.332Z,29.2
2023-10-02T20:04:19.863Z,27.1
2023-10-02T20:14:26.423Z,26.6
2023-10-02T20:24:33.037Z,27.8
2023-10-02T20:34:39.614Z,30.3
2023-10-02T20:44:46.266Z,30.7
2023-10-02T20:54:52.890Z,33.2
2023-10-02T21:04:59.801Z,34.2
2023-10-02T21:15:06.664Z,32.5
2023-10-02T21:25:13.634Z,31.3
2023-10-02T21:35:20.450Z,29.6
2023-10-02T21:45:27.337Z,27.3
2023-10-02T21:55:34.232Z,26.1
2023-10-02T22:05:41.232Z,25.1
2023-10-02T22:15:48.173Z,23.4
2023-10-02T22:25:55.126Z,23.9
2023-10-02T22:36:02.039Z,21.8
2023-10-02T22:46:08.976Z,22.2
2023-10-02T22:56:15.936Z,21.6
2023-10-02T23:06:22.938Z,21.8
2023-10-02T23:16:30.568Z,20
2023-10-02T23:26:37.901Z,21
2023-10-02T23:36:45.579Z,21.3
2023-10-02T23:46:53.244Z,20.8
2023-10-02T23:57:00.918Z,21.4
